createdAt,value
2022-11-29T00:00:31.461Z,6.96
2022-11-29T00:05:37.018Z,7.14
2022-11-29T00:10:38.997Z,7.55
2022-11-29T00:15:41.000Z,7.20
2022-11-29T00:20:42.990Z,6.66
2022-11-29T00:25:44.915Z,7.42
2022-11-29T00:30:47.435Z,7.35
2022-11-29T00:35:49.384Z,7.41
2022-11-29T00:40:52.726Z,7.19
2022-11-29T00:45:54.792Z,7.00
2022-11-29T00:50:56.870Z,7.30
2022-11-29T00:55:58.968Z,6.94
2022-11-29T01:01:01.005Z,7.14
2022-11-29T01:06:11.643Z,7.36
2022-11-29T01:11:26.324Z,7.49
2022-11-29T01:16:30.320Z,7.74
2022-11-29T01:21:32.376Z,7.50
2022-11-29T01:26:34.376Z,7.99
2022-11-29T01:31:36.440Z,7.84
2022-11-29T01:36:38.430Z,7.74
2022-11-29T01:41:40.414Z,7.46
2022-11-29T01:46:44.734Z,6.97
2022-11-29T01:51:51.614Z,7.45
2022-11-29T01:56:53.658Z,6.90
2022-11-29T02:02:05.357Z,7.16
2022-11-29T02:07:08.028Z,6.54
2022-11-29T02:12:18.835Z,6.99
2022-11-29T02:17:45.013Z,7.27
2022-11-29T02:22:46.845Z,6.29
2022-11-29T02:28:06.862Z,6.80
2022-11-29T02:33:11.679Z,6.85
2022-11-29T02:38:58.009Z,6.71
2022-11-29T02:44:06.004Z,7.19
2022-11-29T02:49:31.863Z,6.66
2022-11-29T02:54:40.675Z,6.78
2022-11-29T03:00:06.556Z,7.05
2022-11-29T03:05:49.770Z,6.54
2022-11-29T03:10:51.646Z,6.04
2022-11-29T03:16:16.121Z,6.39
2022-11-29T03:21:27.156Z,5.39
2022-11-29T03:26:40.073Z,4.97
2022-11-29T03:31:58.381Z,5.73
2022-11-29T03:37:20.242Z,6.38
2022-11-29T03:42:34.167Z,5.58
2022-11-29T03:47:45.160Z,5.34
2022-11-29T03:52:54.910Z,5.61
2022-11-29T03:58:08.953Z,5.80
2022-11-29T04:03:29.765Z,5.86
2022-11-29T04:09:06.188Z,6.08
2022-11-29T04:14:20.178Z,6.10
2022-11-29T04:19:30.946Z,6.05
2022-11-29T04:25:02.604Z,6.00
2022-11-29T04:30:13.888Z,5.96
2022-11-29T04:35:35.533Z,5.75
2022-11-29T04:41:05.265Z,6.08
2022-11-29T04:46:36.553Z,5.74
2022-11-29T04:52:15.226Z,5.87
2022-11-29T04:57:42.228Z,5.72
2022-11-29T05:02:59.828Z,6.03
2022-11-29T05:08:39.479Z,5.60
2022-11-29T05:14:04.252Z,5.34
2022-11-29T05:19:25.398Z,5.48
2022-11-29T05:24:33.576Z,6.43
2022-11-29T05:29:46.347Z,6.56
2022-11-29T05:35:10.030Z,6.57
2022-11-29T05:40:24.032Z,6.25
2022-11-29T05:46:04.588Z,6.36
2022-11-29T05:51:28.278Z,6.01
2022-11-29T05:56:59.950Z,6.54
2022-11-29T06:02:20.816Z,6.48
2022-11-29T06:07:33.448Z,6.26
2022-11-29T06:12:38.810Z,6.35
2022-11-29T06:18:18.246Z,6.49
2022-11-29T06:23:36.656Z,6.51
2022-11-29T06:29:06.735Z,6.50
2022-11-29T06:34:30.960Z,6.56
2022-11-29T06:39:33.419Z,6.45
2022-11-29T06:44:35.641Z,6.43
2022-11-29T06:49:50.419Z,6.30
2022-11-29T06:55:10.000Z,6.47
2022-11-29T07:00:16.345Z,5.51
2022-11-29T07:05:35.456Z,6.36
2022-11-29T07:10:39.617Z,5.74
2022-11-29T07:15:55.400Z,5.38
2022-11-29T07:21:03.295Z,4.68
2022-11-29T07:26:15.225Z,5.07
2022-11-29T07:31:29.057Z,4.98
2022-11-29T07:36:40.031Z,5.60
2022-11-29T07:42:08.113Z,5.72
2022-11-29T07:47:10.517Z,5.81
2022-11-29T07:52:14.608Z,5.26
2022-11-29T07:57:16.613Z,5.38
2022-11-29T08:02:29.832Z,5.16
2022-11-29T08:07:35.636Z,4.13
2022-11-29T08:12:42.579Z,3.24
2022-11-29T08:17:44.671Z,4.64
2022-11-29T08:22:54.375Z,4.41
2022-11-29T08:27:56.507Z,4.01
2022-11-29T08:32:58.523Z,4.11
2022-11-29T08:38:00.514Z,2.56
2022-11-29T08:43:03.713Z,3.75
2022-11-29T08:48:06.208Z,1.77
2022-11-29T08:53:27.370Z,4.16
2022-11-29T08:58:29.610Z,2.68
2022-11-29T09:03:53.195Z,3.18
2022-11-29T09:08:59.138Z,2.14
2022-11-29T09:14:05.470Z,0.59
2022-11-29T09:19:08.150Z,0.93
2022-11-29T09:24:10.721Z,2.01
2022-11-29T09:29:12.664Z,1.19
2022-11-29T09:34:15.883Z,2.29
2022-11-29T09:39:18.064Z,0.14
2022-11-29T09:44:48.189Z,1.32
2022-11-29T09:49:59.274Z,1.41
2022-11-29T09:55:30.163Z,2.62
2022-11-29T10:00:37.977Z,3.13
2022-11-29T10:05:49.997Z,1.65
2022-11-29T10:10:58.622Z,2.24
2022-11-29T10:16:12.355Z,1.99
2022-11-29T10:21:21.047Z,1.86
2022-11-29T10:26:25.883Z,2.37
2022-11-29T10:31:44.123Z,1.57
2022-11-29T10:36:59.554Z,3.07
2022-11-29T10:42:03.744Z,2.95
2022-11-29T10:47:10.765Z,1.39
2022-11-29T10:52:23.575Z,3.38
2022-11-29T10:57:25.811Z,1.44
2022-11-29T11:02:28.623Z,1.69
2022-11-29T11:07:36.253Z,2.67
2022-11-29T11:12:38.448Z,4.17
2022-11-29T11:17:42.309Z,3.28
2022-11-29T11:22:44.662Z,2.25
2022-11-29T11:27:47.348Z,3.44
2022-11-29T11:33:08.330Z,4.23
2022-11-29T11:38:17.781Z,3.18
2022-11-29T11:43:21.887Z,4.73
2022-11-29T11:48:24.677Z,4.26
2022-11-29T11:53:26.676Z,2.73
2022-11-29T11:58:39.369Z,2.20
2022-11-29T12:03:45.174Z,3.47
2022-11-29T12:08:49.435Z,4.19
2022-11-29T12:13:56.887Z,3.09
2022-11-29T12:19:16.852Z,2.77
2022-11-29T12:24:27.730Z,2.98
2022-11-29T12:29:33.587Z,3.32
2022-11-29T12:35:02.802Z,3.38
2022-11-29T12:40:38.395Z,2.64
2022-11-29T12:45:57.617Z,3.43
2022-11-29T12:51:12.630Z,4.14
2022-11-29T12:56:25.780Z,-0.57
2022-11-29T13:01:53.548Z,1.21
2022-11-29T13:07:20.905Z,-0.35
2022-11-29T13:12:44.168Z,2.40
2022-11-29T13:18:11.597Z,2.08
2022-11-29T13:24:00.718Z,0.41
2022-11-29T13:29:03.136Z,0.38
2022-11-29T13:34:35.664Z,-0.40
2022-11-29T13:39:40.467Z,2.56
2022-11-29T13:45:01.267Z,3.42
2022-11-29T13:50:25.754Z,4.66
2022-11-29T13:55:31.567Z,5.43
2022-11-29T14:00:36.677Z,6.21
2022-11-29T14:05:40.433Z,6.25
2022-11-29T14:10:49.204Z,6.38
2022-11-29T14:15:58.537Z,5.16
2022-11-29T14:21:00.647Z,4.96
2022-11-29T14:26:02.707Z,6.21
2022-11-29T14:31:06.535Z,5.83
2022-11-29T14:36:14.570Z,5.80
2022-11-29T14:41:24.610Z,5.40
2022-11-29T14:46:31.993Z,6.78
2022-11-29T14:51:34.535Z,4.92
2022-11-29T14:56:44.969Z,4.84
2022-11-29T15:01:49.611Z,6.27
2022-11-29T15:06:55.739Z,5.85
2022-11-29T15:12:02.435Z,3.68
2022-11-29T15:17:38.636Z,5.82
2022-11-29T15:22:45.658Z,4.38
2022-11-29T15:27:59.076Z,6.40
2022-11-29T15:33:04.650Z,5.64
2022-11-29T15:38:06.605Z,6.04
2022-11-29T15:43:22.927Z,6.59
2022-11-29T15:48:34.136Z,6.78
2022-11-29T15:53:50.038Z,7.10
2022-11-29T15:58:59.585Z,6.87
2022-11-29T16:04:02.181Z,6.62
2022-11-29T16:09:08.698Z,7.18
2022-11-29T16:14:18.937Z,6.84
2022-11-29T16:19:29.710Z,6.90
2022-11-29T16:24:34.280Z,6.06
2022-11-29T16:29:41.669Z,5.09
2022-11-29T16:34:45.078Z,6.41
2022-11-29T16:39:50.764Z,7.25
2022-11-29T16:45:02.013Z,7.46
2022-11-29T16:50:22.744Z,7.23
2022-11-29T16:55:24.807Z,7.19
2022-11-29T17:00:31.695Z,7.30
2022-11-29T17:05:33.734Z,7.56
2022-11-29T17:10:35.700Z,7.90
2022-11-29T17:15:38.039Z,7.56
2022-11-29T17:20:40.046Z,7.63
2022-11-29T17:25:42.330Z,6.86
2022-11-29T17:30:44.558Z,5.30
2022-11-29T17:35:47.246Z,6.67
2022-11-29T17:40:49.917Z,7.37
2022-11-29T17:45:52.342Z,7.72
2022-11-29T17:51:00.103Z,7.92
2022-11-29T17:56:07.815Z,7.98
2022-11-29T18:01:17.687Z,7.84
2022-11-29T18:06:25.272Z,8.17
2022-11-29T18:11:49.744Z,8.00
2022-11-29T18:16:52.188Z,8.06
2022-11-29T18:21:54.271Z,8.36
2022-11-29T18:26:56.219Z,7.72
2022-11-29T18:31:58.171Z,7.60
2022-11-29T18:37:00.151Z,7.94
2022-11-29T18:42:02.174Z,8.02
2022-11-29T18:47:04.175Z,7.90
2022-11-29T18:52:06.536Z,8.24
2022-11-29T18:57:08.512Z,8.10
2022-11-29T19:02:10.579Z,7.80
2022-11-29T19:07:12.548Z,7.89
2022-11-29T19:12:14.520Z,8.18
2022-11-29T19:17:16.522Z,8.43
2022-11-29T19:22:18.603Z,8.34
2022-11-29T19:27:21.285Z,7.71
2022-11-29T19:32:23.275Z,7.95
2022-11-29T19:37:25.385Z,7.89
2022-11-29T19:42:27.359Z,7.90
2022-11-29T19:47:29.384Z,7.69
2022-11-29T19:52:31.504Z,7.76
2022-11-29T19:57:33.505Z,7.56
2022-11-29T20:02:37.356Z,6.43
2022-11-29T20:07:39.589Z,7.35
2022-11-29T20:12:41.637Z,6.95
2022-11-29T20:17:43.570Z,7.50
2022-11-29T20:22:45.604Z,7.55
2022-11-29T20:27:47.605Z,7.20
2022-11-29T20:32:49.650Z,6.60
2022-11-29T20:38:14.054Z,6.67
2022-11-29T20:43:22.277Z,7.04
2022-11-29T20:48:24.852Z,6.44
2022-11-29T20:53:40.192Z,6.71
2022-11-29T20:58:42.146Z,6.45
2022-11-29T21:03:44.180Z,6.97
2022-11-29T21:08:46.147Z,7.06
2022-11-29T21:13:48.347Z,6.78
2022-11-29T21:18:59.865Z,6.05
2022-11-29T21:24:29.702Z,6.62
2022-11-29T21:29:31.846Z,6.39
2022-11-29T21:34:34.161Z,6.63
2022-11-29T21:39:36.175Z,6.81
2022-11-29T21:44:38.491Z,6.93
2022-11-29T21:49:40.759Z,5.46
2022-11-29T21:54:42.758Z,6.78
2022-11-29T21:59:44.774Z,7.01
2022-11-29T22:04:46.966Z,5.91
2022-11-29T22:09:48.977Z,6.23
2022-11-29T22:14:50.911Z,6.56
2022-11-29T22:19:52.845Z,6.68
2022-11-29T22:24:54.739Z,7.31
2022-11-29T22:29:56.659Z,7.26
2022-11-29T22:34:58.578Z,7.19
2022-11-29T22:40:00.553Z,6.62
2022-11-29T22:45:04.150Z,6.39
2022-11-29T22:50:06.573Z,6.53
2022-11-29T22:55:09.248Z,6.62
2022-11-29T23:00:13.595Z,6.19
2022-11-29T23:05:15.580Z,5.58
2022-11-29T23:10:17.500Z,6.38
2022-11-29T23:15:19.434Z,5.99
2022-11-29T23:20:21.346Z,6.22
2022-11-29T23:25:23.281Z,5.66
2022-11-29T23:30:25.199Z,6.58
2022-11-29T23:35:27.117Z,5.20
2022-11-29T23:40:29.045Z,6.08
2022-11-29T23:45:31.129Z,6.20
2022-11-29T23:50:33.273Z,6.46
2022-11-29T23:55:35.320Z,6.24
